Time;durP1;ratioP1;P1;durP2;ratioP2;P2;SDS_P1;SDS_P2;PMS_P1;PMS_P2;Temp;Humidity;BMP_temperature;BMP_pressure;BME280_temperature;BME280_humidity;BME280_pressure;Samples;Min_cycle;Max_cycle;Signal;HPM_P1;HPM_P2
2022/11/14 00:00:58;;;;;;;;;;;15.90;99.90;;;;;;5119681;28;19908;-58
2022/11/14 00:03:24;;;;;;;;;;;15.90;99.90;;;;;;5120103;28;19907;-58
2022/11/14 00:05:49;;;;;;;;;;;15.90;99.90;;;;;;5119594;28;19908;-58
2022/11/14 00:08:19;;;;;;;;;;;15.90;99.90;;;;;;5119308;28;20380;-59
2022/11/14 00:10:46;;;;;;;;;;;15.90;99.90;;;;;;5119314;28;19923;-58
2022/11/14 00:13:12;;;;;;;;;;;15.90;99.90;;;;;;5119860;28;20354;-58
2022/11/14 00:15:38;;;;;;;;;;;15.90;99.90;;;;;;5119407;28;19908;-58
2022/11/14 00:18:03;;;;;;;;;;;16.00;99.90;;;;;;5119554;28;19908;-58
2022/11/14 00:20:29;;;;;;;;;;;16.00;99.90;;;;;;5119453;28;20397;-58
2022/11/14 00:22:54;;;;;;;;;;;16.00;99.90;;;;;;5119440;28;19929;-58
2022/11/14 00:25:20;;;;;;;;;;;16.00;99.90;;;;;;5119184;28;19919;-58
2022/11/14 00:27:45;;;;;;;;;;;16.00;99.90;;;;;;5119334;28;20384;-58
2022/11/14 00:30:11;;;;;;;;;;;16.00;99.90;;;;;;5118322;28;19930;-58
2022/11/14 00:32:37;;;;;;;;;;;16.00;99.90;;;;;;5119335;28;19915;-58
2022/11/14 00:35:02;;;;;;;;;;;16.00;99.90;;;;;;5118992;28;19911;-58
2022/11/14 00:37:28;;;;;;;;;;;15.90;99.90;;;;;;5119005;28;19908;-58
2022/11/14 00:39:53;;;;;;;;;;;15.90;99.90;;;;;;5119310;28;19908;-58
2022/11/14 00:42:19;;;;;;;;;;;15.90;99.90;;;;;;5118669;28;19977;-58
2022/11/14 00:44:45;;;;;;;;;;;15.90;99.90;;;;;;5119302;28;19972;-58
2022/11/14 00:47:10;;;;;;;;;;;15.90;99.90;;;;;;5118848;28;19919;-58
2022/11/14 00:49:36;;;;;;;;;;;15.90;99.90;;;;;;5119111;28;20811;-58
2022/11/14 00:52:01;;;;;;;;;;;15.90;99.90;;;;;;5118773;28;19907;-58
2022/11/14 00:54:27;;;;;;;;;;;15.90;99.90;;;;;;5118902;28;19965;-58
2022/11/14 00:56:53;;;;;;;;;;;15.90;99.90;;;;;;5118835;28;19943;-58
2022/11/14 00:59:18;;;;;;;;;;;15.90;99.90;;;;;;5118811;28;19915;-58
2022/11/14 01:01:44;;;;;;;;;;;15.90;99.90;;;;;;5118622;28;19908;-58
2022/11/14 01:04:09;;;;;;;;;;;15.90;99.90;;;;;;5118772;28;19995;-58
2022/11/14 01:06:35;;;;;;;;;;;15.90;99.90;;;;;;5118391;28;19916;-58
2022/11/14 01:09:01;;;;;;;;;;;15.80;99.90;;;;;;5118785;28;20388;-58
2022/11/14 01:11:26;;;;;;;;;;;15.90;99.90;;;;;;5118652;28;20304;-58
2022/11/14 01:13:52;;;;;;;;;;;15.80;99.90;;;;;;5118677;28;19908;-58
2022/11/14 01:16:18;;;;;;;;;;;15.80;99.90;;;;;;5118433;28;19908;-58
2022/11/14 01:18:44;;;;;;;;;;;15.80;99.90;;;;;;5118436;28;19915;-58
2022/11/14 01:21:11;;;;;;;;;;;15.80;99.90;;;;;;5118389;28;20360;-58
2022/11/14 01:23:36;;;;;;;;;;;15.80;99.90;;;;;;5118846;28;19908;-58
2022/11/14 01:26:03;;;;;;;;;;;15.80;99.90;;;;;;5118344;28;19961;-58
2022/11/14 01:28:29;;;;;;;;;;;15.80;99.90;;;;;;5118307;28;19951;-58
2022/11/14 01:30:55;;;;;;;;;;;15.90;99.90;;;;;;5118492;28;19908;-58
2022/11/14 01:33:20;;;;;;;;;;;15.90;99.90;;;;;;5118283;28;19912;-58
2022/11/14 01:35:46;;;;;;;;;;;15.80;99.90;;;;;;5118269;28;19908;-58
2022/11/14 01:38:13;;;;;;;;;;;15.90;99.90;;;;;;5118152;28;19915;-58
2022/11/14 01:40:45;;;;;;;;;;;15.90;99.90;;;;;;5119257;28;19908;-58
2022/11/14 01:43:21;;;;;;;;;;;15.90;99.90;;;;;;5122319;28;20375;-58
2022/11/14 01:46:02;;;;;;;;;;;15.90;99.90;;;;;;5122605;28;19984;-58
2022/11/14 01:48:36;;;;;;;;;;;15.90;99.90;;;;;;5122074;28;20426;-58
2022/11/14 01:51:20;;;;;;;;;;;15.90;99.90;;;;;;5122514;28;19914;-58
2022/11/14 01:53:47;;;;;;;;;;;15.90;99.90;;;;;;5122172;28;20486;-58
2022/11/14 01:56:16;;;;;;;;;;;15.90;99.90;;;;;;5121910;28;20429;-58
2022/11/14 01:58:44;;;;;;;;;;;15.90;99.90;;;;;;5122278;28;19907;-58
2022/11/14 02:01:10;;;;;;;;;;;15.90;99.90;;;;;;5122115;28;19915;-58
2022/11/14 02:03:38;;;;;;;;;;;15.90;99.90;;;;;;5122134;28;20278;-58
2022/11/14 02:06:05;;;;;;;;;;;15.90;99.90;;;;;;5122201;28;19907;-58
2022/11/14 02:08:31;;;;;;;;;;;15.90;99.90;;;;;;5121661;28;19924;-58
2022/11/14 02:10:57;;;;;;;;;;;15.90;99.90;;;;;;5122324;28;19931;-58
2022/11/14 02:13:22;;;;;;;;;;;15.90;99.90;;;;;;5121865;28;19908;-58
2022/11/14 02:15:48;;;;;;;;;;;15.80;99.90;;;;;;5121803;28;19908;-58
2022/11/14 02:18:14;;;;;;;;;;;15.90;99.90;;;;;;5121923;28;19915;-58
2022/11/14 02:20:42;;;;;;;;;;;15.80;99.90;;;;;;5121921;28;19908;-58
2022/11/14 02:23:08;;;;;;;;;;;15.80;99.90;;;;;;5121506;28;20009;-58
2022/11/14 02:25:34;;;;;;;;;;;15.80;99.90;;;;;;5121906;28;19908;-58
2022/11/14 02:28:00;;;;;;;;;;;15.90;99.90;;;;;;5121651;28;20274;-58
2022/11/14 02:30:25;;;;;;;;;;;15.80;99.90;;;;;;5121745;28;19907;-58
2022/11/14 02:32:51;;;;;;;;;;;15.80;99.90;;;;;;5121619;28;20002;-58
2022/11/14 02:35:16;;;;;;;;;;;15.80;99.90;;;;;;5121604;28;19979;-58
2022/11/14 02:37:42;;;;;;;;;;;15.90;99.90;;;;;;5121324;28;19908;-58
2022/11/14 02:40:08;;;;;;;;;;;15.80;99.90;;;;;;5121506;28;19914;-58
2022/11/14 02:42:34;;;;;;;;;;;15.80;99.90;;;;;;5121465;28;20492;-58
2022/11/14 02:44:59;;;;;;;;;;;15.90;99.90;;;;;;5120995;28;19931;-58
2022/11/14 02:47:25;;;;;;;;;;;15.80;99.90;;;;;;5121522;28;19915;-58
2022/11/14 02:49:51;;;;;;;;;;;15.80;99.90;;;;;;5120962;28;19915;-58
2022/11/14 02:52:16;;;;;;;;;;;15.80;99.90;;;;;;5120206;28;19935;-58
2022/11/14 02:54:42;;;;;;;;;;;15.80;99.90;;;;;;5102521;28;19908;-58
2022/11/14 02:57:07;;;;;;;;;;;15.80;99.90;;;;;;5121096;28;19907;-58
2022/11/14 02:59:33;;;;;;;;;;;15.80;99.90;;;;;;5120925;28;19908;-58
2022/11/14 03:01:59;;;;;;;;;;;15.80;99.90;;;;;;5121114;28;19908;-58
2022/11/14 03:04:25;;;;;;;;;;;15.80;99.90;;;;;;5120574;28;19908;-58
2022/11/14 03:06:50;;;;;;;;;;;15.80;99.90;;;;;;5120896;28;19923;-58
2022/11/14 03:09:17;;;;;;;;;;;15.80;99.90;;;;;;5120681;28;20383;-58
2022/11/14 03:11:42;;;;;;;;;;;15.80;99.90;;;;;;5120707;28;19946;-58
2022/11/14 03:14:08;;;;;;;;;;;15.80;99.90;;;;;;5120626;28;19908;-58
2022/11/14 03:16:34;;;;;;;;;;;15.80;99.90;;;;;;5120628;28;19908;-58
2022/11/14 03:18:59;;;;;;;;;;;15.80;99.90;;;;;;5120473;28;19908;-58
2022/11/14 03:21:25;;;;;;;;;;;15.90;99.90;;;;;;5120398;28;19912;-58
2022/11/14 03:23:50;;;;;;;;;;;15.80;99.90;;;;;;5120600;28;19912;-58
2022/11/14 03:26:16;;;;;;;;;;;15.90;99.90;;;;;;5120380;28;19961;-58
2022/11/14 03:28:42;;;;;;;;;;;15.80;99.90;;;;;;5120674;28;19916;-58
2022/11/14 03:31:09;;;;;;;;;;;15.90;99.90;;;;;;5120700;28;19941;-58
2022/11/14 03:33:35;;;;;;;;;;;15.90;99.90;;;;;;5120389;28;20279;-58
2022/11/14 03:36:01;;;;;;;;;;;15.90;99.90;;;;;;5101939;28;19953;-58
2022/11/14 03:38:26;;;;;;;;;;;15.80;99.90;;;;;;5120459;28;19908;-58
2022/11/14 03:40:52;;;;;;;;;;;15.90;99.90;;;;;;5120331;28;19955;-58
2022/11/14 03:43:19;;;;;;;;;;;15.90;99.90;;;;;;5120570;28;19907;-58
2022/11/14 03:45:44;;;;;;;;;;;15.90;99.90;;;;;;5119997;28;19954;-58
2022/11/14 03:48:10;;;;;;;;;;;15.90;99.90;;;;;;5120101;28;19911;-58
2022/11/14 03:50:36;;;;;;;;;;;15.90;99.90;;;;;;5119918;28;20386;-58
2022/11/14 03:53:01;;;;;;;;;;;15.80;99.90;;;;;;5119874;28;20012;-58
2022/11/14 03:55:27;;;;;;;;;;;15.90;99.90;;;;;;5120345;28;19915;-58
2022/11/14 03:57:52;;;;;;;;;;;15.80;99.90;;;;;;5119738;28;19907;-58
2022/11/14 04:00:18;;;;;;;;;;;15.90;99.90;;;;;;5119900;28;20363;-58
2022/11/14 04:02:44;;;;;;;;;;;15.90;99.90;;;;;;5119837;28;19957;-58
2022/11/14 04:05:09;;;;;;;;;;;15.90;99.90;;;;;;5119923;28;20429;-58
2022/11/14 04:07:35;;;;;;;;;;;15.90;99.90;;;;;;5119500;28;20448;-58
2022/11/14 04:10:01;;;;;;;;;;;15.80;99.90;;;;;;5119490;28;19915;-58
2022/11/14 04:12:26;;;;;;;;;;;15.80;99.90;;;;;;5119813;28;19908;-58
2022/11/14 04:14:52;;;;;;;;;;;15.80;99.90;;;;;;5119421;28;19951;-58
2022/11/14 04:17:17;;;;;;;;;;;15.80;99.90;;;;;;5119559;28;19935;-61
2022/11/14 04:19:43;;;;;;;;;;;15.70;99.90;;;;;;5119502;28;19908;-58
2022/11/14 04:22:08;;;;;;;;;;;15.80;99.90;;;;;;5119490;28;19947;-58
2022/11/14 04:24:34;;;;;;;;;;;15.80;99.90;;;;;;5119627;28;19914;-58
2022/11/14 04:27:00;;;;;;;;;;;15.80;99.90;;;;;;5119455;28;19908;-58
2022/11/14 04:29:25;;;;;;;;;;;15.80;99.90;;;;;;5119110;28;19911;-58
2022/11/14 04:31:51;;;;;;;;;;;15.70;99.90;;;;;;5119394;28;19912;-58
2022/11/14 04:34:16;;;;;;;;;;;15.70;99.90;;;;;;5119051;28;20268;-58
2022/11/14 04:36:42;;;;;;;;;;;15.70;99.90;;;;;;5119257;28;19908;-58
2022/11/14 04:39:08;;;;;;;;;;;15.70;99.90;;;;;;5118982;28;19915;-58
2022/11/14 04:41:33;;;;;;;;;;;15.60;99.90;;;;;;5119091;28;19978;-58
2022/11/14 04:43:59;;;;;;;;;;;15.60;99.90;;;;;;5119281;28;20301;-58
2022/11/14 04:46:24;;;;;;;;;;;15.60;99.90;;;;;;5119350;28;19929;-58
2022/11/14 04:48:50;;;;;;;;;;;15.60;99.90;;;;;;5118604;28;19911;-58
2022/11/14 04:51:16;;;;;;;;;;;15.60;99.90;;;;;;5119141;28;19911;-58
2022/11/14 04:53:41;;;;;;;;;;;15.60;99.90;;;;;;5119193;28;19914;-58
2022/11/14 04:56:07;;;;;;;;;;;15.70;99.90;;;;;;5118756;28;20371;-58
2022/11/14 04:58:32;;;;;;;;;;;15.60;99.90;;;;;;5119055;28;19908;-58
2022/11/14 05:00:59;;;;;;;;;;;15.60;99.90;;;;;;5119125;28;20427;-58
2022/11/14 05:03:25;;;;;;;;;;;15.60;99.90;;;;;;5118500;28;19981;-58
2022/11/14 05:05:50;;;;;;;;;;;15.60;99.90;;;;;;5118943;28;19923;-58
2022/11/14 05:08:16;;;;;;;;;;;15.60;99.90;;;;;;5118320;28;20280;-59
2022/11/14 05:10:43;;;;;;;;;;;15.50;99.90;;;;;;5118559;28;19914;-58
2022/11/14 05:13:09;;;;;;;;;;;15.50;99.90;;;;;;5118487;28;19909;-59
2022/11/14 05:15:35;;;;;;;;;;;15.50;99.90;;;;;;5118400;28;20015;-58
2022/11/14 05:18:00;;;;;;;;;;;15.50;99.90;;;;;;5118676;28;19907;-58
2022/11/14 05:20:26;;;;;;;;;;;15.50;99.90;;;;;;5118956;28;20422;-58
2022/11/14 05:22:53;;;;;;;;;;;15.50;99.90;;;;;;5118434;28;20267;-58
2022/11/14 05:25:19;;;;;;;;;;;15.50;99.90;;;;;;5118285;28;19954;-58
2022/11/14 05:27:44;;;;;;;;;;;15.50;99.90;;;;;;5118265;28;19912;-58
2022/11/14 05:30:10;;;;;;;;;;;15.50;99.90;;;;;;5118504;28;19908;-58
2022/11/14 05:32:36;;;;;;;;;;;15.50;99.90;;;;;;5118206;28;19908;-59
2022/11/14 05:35:01;;;;;;;;;;;15.50;99.90;;;;;;5118360;28;19908;-58
2022/11/14 05:37:27;;;;;;;;;;;15.40;99.90;;;;;;5118581;28;19912;-59
2022/11/14 05:39:53;;;;;;;;;;;15.40;99.90;;;;;;5118380;28;19908;-58
2022/11/14 05:42:18;;;;;;;;;;;15.50;99.90;;;;;;5118389;28;19909;-58
2022/11/14 05:44:44;;;;;;;;;;;15.40;99.90;;;;;;5118176;28;19908;-59
2022/11/14 05:47:09;;;;;;;;;;;15.40;99.90;;;;;;5118412;28;19907;-58
2022/11/14 05:49:35;;;;;;;;;;;15.40;99.90;;;;;;5118203;28;20359;-58
2022/11/14 05:52:00;;;;;;;;;;;15.40;99.90;;;;;;5118867;28;20386;-58
2022/11/14 05:54:26;;;;;;;;;;;15.40;99.90;;;;;;5118090;28;20007;-58
2022/11/14 05:56:52;;;;;;;;;;;15.30;99.90;;;;;;5118557;28;20282;-58
2022/11/14 05:59:17;;;;;;;;;;;15.30;99.90;;;;;;5118286;28;19911;-58
2022/11/14 06:01:43;;;;;;;;;;;15.30;99.90;;;;;;5118512;28;19996;-58
2022/11/14 06:04:08;;;;;;;;;;;15.30;99.90;;;;;;5117846;28;19908;-58
2022/11/14 06:06:34;;;;;;;;;;;15.20;99.90;;;;;;5117984;28;19916;-58
2022/11/14 06:08:59;;;;;;;;;;;15.10;99.90;;;;;;5117847;28;19912;-58
2022/11/14 06:11:25;;;;;;;;;;;15.00;99.90;;;;;;5118132;28;19953;-58
2022/11/14 06:13:51;;;;;;;;;;;14.80;99.90;;;;;;5117818;28;19919;-58
2022/11/14 06:16:17;;;;;;;;;;;14.70;99.90;;;;;;5118069;28;19911;-58
2022/11/14 06:18:43;;;;;;;;;;;14.60;99.90;;;;;;5118017;28;19994;-58
2022/11/14 06:21:10;;;;;;;;;;;14.40;99.90;;;;;;5118179;28;20438;-58
2022/11/14 06:23:36;;;;;;;;;;;14.30;99.90;;;;;;5117823;28;20367;-59
2022/11/14 06:26:03;;;;;;;;;;;14.20;99.90;;;;;;5117887;28;19950;-58
2022/11/14 06:28:29;;;;;;;;;;;14.20;99.90;;;;;;5120074;28;20320;-58
2022/11/14 06:31:01;;;;;;;;;;;14.10;99.90;;;;;;5121632;28;19915;-58
2022/11/14 06:33:27;;;;;;;;;;;14.00;99.90;;;;;;5121602;28;19907;-58
2022/11/14 06:35:57;;;;;;;;;;;14.00;99.90;;;;;;5121489;28;19947;-58
2022/11/14 06:38:22;;;;;;;;;;;14.00;99.90;;;;;;5121052;28;20002;-58
2022/11/14 06:40:48;;;;;;;;;;;13.90;99.90;;;;;;5121503;28;19996;-58
2022/11/14 06:43:13;;;;;;;;;;;13.80;99.90;;;;;;5121659;28;20304;-58
2022/11/14 06:45:39;;;;;;;;;;;13.80;99.90;;;;;;5120974;28;19915;-58
2022/11/14 06:48:05;;;;;;;;;;;13.70;99.90;;;;;;5121212;28;19915;-58
2022/11/14 06:50:31;;;;;;;;;;;13.60;99.90;;;;;;5120793;28;20290;-58
2022/11/14 06:52:57;;;;;;;;;;;13.60;99.90;;;;;;5121231;28;19954;-58
2022/11/14 06:55:23;;;;;;;;;;;13.60;99.90;;;;;;5102348;28;20375;-58
2022/11/14 06:57:55;;;;;;;;;;;13.60;99.90;;;;;;5120637;28;19973;-58
2022/11/14 07:00:21;;;;;;;;;;;13.50;99.90;;;;;;5120790;28;19930;-59
2022/11/14 07:02:46;;;;;;;;;;;13.50;99.90;;;;;;5120900;28;20363;-58
2022/11/14 07:05:12;;;;;;;;;;;13.50;99.90;;;;;;5120705;28;19955;-58
2022/11/14 07:07:38;;;;;;;;;;;13.50;99.90;;;;;;5120507;28;19919;-58
2022/11/14 07:10:03;;;;;;;;;;;13.50;99.90;;;;;;5120188;28;19994;-58
2022/11/14 07:12:31;;;;;;;;;;;13.50;99.90;;;;;;5120486;28;20339;-58
2022/11/14 07:14:57;;;;;;;;;;;13.50;99.90;;;;;;5120344;28;19953;-58
2022/11/14 07:17:22;;;;;;;;;;;13.50;99.90;;;;;;5120608;28;20282;-58
2022/11/14 07:19:48;;;;;;;;;;;13.40;99.90;;;;;;5120393;28;19908;-58
2022/11/14 07:22:14;;;;;;;;;;;13.40;99.90;;;;;;5120251;28;19908;-58
2022/11/14 07:24:39;;;;;;;;;;;13.40;99.90;;;;;;5120564;28;19907;-58
2022/11/14 07:27:07;;;;;;;;;;;13.40;99.90;;;;;;5120514;28;20327;-58
2022/11/14 07:29:33;;;;;;;;;;;13.40;99.90;;;;;;5120397;28;19918;-58
2022/11/14 07:31:58;;;;;;;;;;;13.40;99.90;;;;;;5120611;28;20383;-58
2022/11/14 07:34:24;;;;;;;;;;;13.40;99.90;;;;;;5101860;28;19919;-58
2022/11/14 07:36:50;;;;;;;;;;;13.40;99.90;;;;;;5120401;28;19908;-58
2022/11/14 07:39:16;;;;;;;;;;;13.40;99.90;;;;;;5119642;28;19935;-58
2022/11/14 07:41:41;;;;;;;;;;;13.40;99.90;;;;;;5120190;28;19912;-58
2022/11/14 07:44:07;;;;;;;;;;;13.40;99.90;;;;;;5120126;28;19978;-58
2022/11/14 07:46:33;;;;;;;;;;;13.40;99.90;;;;;;5120354;28;19908;-58
2022/11/14 07:48:58;;;;;;;;;;;13.30;99.90;;;;;;5119805;28;19911;-58
2022/11/14 07:51:24;;;;;;;;;;;13.30;99.90;;;;;;5120099;28;19907;-58
2022/11/14 07:53:53;;;;;;;;;;;13.30;99.90;;;;;;5120296;28;20053;-58
2022/11/14 07:56:19;;;;;;;;;;;13.30;99.90;;;;;;5119780;28;19908;-58
2022/11/14 07:58:44;;;;;;;;;;;13.30;99.90;;;;;;5119892;28;19915;-58
2022/11/14 08:01:11;;;;;;;;;;;13.30;99.90;;;;;;5119831;28;19908;-58
2022/11/14 08:03:36;;;;;;;;;;;13.30;99.90;;;;;;5119598;28;19911;-58
2022/11/14 08:06:03;;;;;;;;;;;13.40;99.90;;;;;;5119518;28;19907;-58
2022/11/14 08:08:29;;;;;;;;;;;13.40;99.90;;;;;;5119119;28;19919;-58
2022/11/14 08:10:55;;;;;;;;;;;13.40;99.90;;;;;;5119499;28;19915;-58
2022/11/14 08:13:21;;;;;;;;;;;13.40;99.90;;;;;;5119424;28;19915;-58
2022/11/14 08:15:46;;;;;;;;;;;13.30;99.90;;;;;;5119415;28;19908;-58
2022/11/14 08:18:12;;;;;;;;;;;13.30;99.90;;;;;;5119353;28;20329;-58
2022/11/14 08:20:37;;;;;;;;;;;13.30;99.90;;;;;;5119521;28;19995;-58
2022/11/14 08:23:04;;;;;;;;;;;13.40;99.90;;;;;;5119413;28;19912;-58
2022/11/14 08:25:30;;;;;;;;;;;13.40;99.90;;;;;;5119405;28;19973;-58
2022/11/14 08:27:55;;;;;;;;;;;13.40;99.90;;;;;;5119095;28;19911;-58
2022/11/14 08:30:21;;;;;;;;;;;13.50;99.90;;;;;;5119139;28;19962;-58
2022/11/14 08:32:47;;;;;;;;;;;13.50;99.90;;;;;;5119136;28;19908;-58
2022/11/14 08:35:12;;;;;;;;;;;13.50;99.90;;;;;;5118800;28;19915;-58
2022/11/14 08:37:38;;;;;;;;;;;13.50;99.90;;;;;;5118957;28;19908;-58
2022/11/14 08:40:05;;;;;;;;;;;13.50;99.90;;;;;;5118978;28;20001;-58
2022/11/14 08:42:30;;;;;;;;;;;13.50;99.90;;;;;;5118590;28;20379;-58
2022/11/14 08:44:56;;;;;;;;;;;13.50;99.90;;;;;;5118675;28;20019;-58
2022/11/14 08:47:21;;;;;;;;;;;13.50;99.90;;;;;;5118806;28;19956;-58
2022/11/14 08:49:47;;;;;;;;;;;13.50;99.90;;;;;;5118222;28;19933;-58
2022/11/14 08:52:13;;;;;;;;;;;13.50;99.90;;;;;;5118609;28;19915;-58
2022/11/14 08:54:38;;;;;;;;;;;13.50;99.90;;;;;;5119044;28;19912;-58
2022/11/14 08:57:05;;;;;;;;;;;13.60;99.90;;;;;;5118822;28;19958;-58
2022/11/14 08:59:31;;;;;;;;;;;13.60;99.90;;;;;;5118636;28;19950;-58
2022/11/14 09:01:57;;;;;;;;;;;13.70;99.90;;;;;;5118817;28;19908;-58
2022/11/14 09:04:22;;;;;;;;;;;13.70;99.90;;;;;;5119002;28;19904;-58
2022/11/14 09:06:48;;;;;;;;;;;13.80;99.90;;;;;;5118322;28;19923;-58
2022/11/14 09:09:14;;;;;;;;;;;13.90;99.90;;;;;;5118597;28;19916;-58
2022/11/14 09:11:41;;;;;;;;;;;13.90;99.90;;;;;;5117919;28;20213;-58
2022/11/14 09:14:07;;;;;;;;;;;14.00;99.90;;;;;;5118503;28;19915;-58
2022/11/14 09:16:32;;;;;;;;;;;14.20;99.90;;;;;;5118593;28;19908;-58
2022/11/14 09:18:58;;;;;;;;;;;14.20;99.90;;;;;;5118163;28;19908;-58
2022/11/14 09:21:24;;;;;;;;;;;14.30;99.90;;;;;;5118358;28;19956;-58
2022/11/14 09:23:50;;;;;;;;;;;14.50;99.90;;;;;;5118729;28;19999;-58
2022/11/14 09:26:17;;;;;;;;;;;14.60;99.90;;;;;;5118287;28;19950;-58
2022/11/14 09:28:43;;;;;;;;;;;14.60;99.90;;;;;;5118308;28;19912;-58
2022/11/14 09:31:10;;;;;;;;;;;14.70;99.90;;;;;;5118617;28;19914;-58
2022/11/14 09:33:36;;;;;;;;;;;14.70;99.90;;;;;;5117995;28;19908;-58
2022/11/14 09:36:03;;;;;;;;;;;14.60;99.90;;;;;;5118412;28;19961;-58
2022/11/14 09:38:29;;;;;;;;;;;14.70;99.90;;;;;;5118422;28;19908;-58
2022/11/14 09:41:04;;;;;;;;;;;14.70;99.90;;;;;;5118367;28;20006;-58
2022/11/14 09:43:37;;;;;;;;;;;14.80;99.90;;;;;;5118128;28;19914;-58
2022/11/14 09:46:09;;;;;;;;;;;15.10;99.90;;;;;;5117945;28;19908;-58
2022/11/14 09:48:35;;;;;;;;;;;15.60;99.90;;;;;;5118189;28;19919;-58
2022/11/14 09:51:07;;;;;;;;;;;16.00;99.90;;;;;;5118515;28;19915;-58
2022/11/14 09:54:05;;;;;;;;;;;16.10;99.90;;;;;;5117968;28;19908;-58
2022/11/14 09:56:30;;;;;;;;;;;16.30;99.90;;;;;;5062128;28;19908;-59
2022/11/14 09:58:56;;;;;;;;;;;17.00;99.90;;;;;;5117989;28;19914;-59
2022/11/14 10:01:31;;;;;;;;;;;17.50;99.90;;;;;;5118936;28;20392;-59
2022/11/14 10:04:12;;;;;;;;;;;17.90;99.90;;;;;;5121911;28;19908;-59
2022/11/14 10:06:43;;;;;;;;;;;18.50;99.90;;;;;;5121921;28;19916;-59
2022/11/14 10:09:22;;;;;;;;;;;19.10;96.20;;;;;;5121965;28;19916;-59
2022/11/14 10:12:03;;;;;;;;;;;19.70;99.30;;;;;;5121329;28;19908;-59
2022/11/14 10:14:47;;;;;;;;;;;20.00;95.00;;;;;;5121951;28;19912;-59
2022/11/14 10:17:33;;;;;;;;;;;20.60;94.30;;;;;;5121543;28;19908;-59
2022/11/14 10:20:09;;;;;;;;;;;21.20;93.60;;;;;;5121712;28;19908;-59
2022/11/14 10:22:34;;;;;;;;;;;21.50;97.20;;;;;;5121396;28;19919;-59
2022/11/14 10:25:03;;;;;;;;;;;21.60;96.20;;;;;;5121409;28;19908;-59
2022/11/14 10:27:35;;;;;;;;;;;22.30;97.50;;;;;;5121726;28;19907;-59
2022/11/14 10:30:11;;;;;;;;;;;22.50;92.50;;;;;;5121490;28;19916;-59
2022/11/14 10:32:55;;;;;;;;;;;22.90;86.90;;;;;;5121431;28;19912;-59
2022/11/14 10:35:30;;;;;;;;;;;23.00;91.70;;;;;;5121937;28;19975;-59
2022/11/14 10:38:10;;;;;;;;;;;23.50;93.10;;;;;;5121302;28;19907;-59
2022/11/14 10:40:50;;;;;;;;;;;23.70;79.70;;;;;;5121302;28;19939;-59
2022/11/14 10:43:20;;;;;;;;;;;23.70;88.80;;;;;;5121102;28;20397;-59
2022/11/14 10:45:49;;;;;;;;;;;23.70;81.30;;;;;;5121389;28;19957;-59
2022/11/14 10:48:18;;;;;;;;;;;24.00;79.80;;;;;;5120944;28;19951;-59
2022/11/14 10:50:54;;;;;;;;;;;24.60;83.70;;;;;;5121322;28;20006;-59
2022/11/14 10:53:31;;;;;;;;;;;24.20;67.70;;;;;;5121026;28;19915;-59
2022/11/14 10:55:57;;;;;;;;;;;24.70;92.20;;;;;;5121494;28;19908;-59
2022/11/14 10:58:23;;;;;;;;;;;24.70;81.90;;;;;;5120942;28;19908;-59
2022/11/14 11:00:48;;;;;;;;;;;24.80;75.80;;;;;;5121207;28;19908;-59
2022/11/14 11:03:14;;;;;;;;;;;24.40;63.70;;;;;;5121004;28;19914;-59
2022/11/14 11:05:48;;;;;;;;;;;23.90;72.80;;;;;;5120708;28;19995;-59
2022/11/14 11:13:56;;;;;;;;;;;22.60;71.80;;;;;;5120349;28;19952;-59
2022/11/14 11:16:23;;;;;;;;;;;22.80;76.60;;;;;;5120866;28;19915;-59
2022/11/14 11:18:48;;;;;;;;;;;22.60;61.30;;;;;;5120572;28;20309;-59
2022/11/14 11:21:15;;;;;;;;;;;22.60;80.60;;;;;;5120477;28;19908;-59
2022/11/14 11:23:48;;;;;;;;;;;23.10;69.20;;;;;;5121002;28;20411;-59
2022/11/14 11:26:17;;;;;;;;;;;23.80;75.20;;;;;;5120406;28;19907;-59
2022/11/14 11:28:43;;;;;;;;;;;24.40;71.10;;;;;;5120491;28;19916;-59
2022/11/14 11:31:09;;;;;;;;;;;24.50;62.10;;;;;;5120772;28;19908;-59
2022/11/14 11:33:36;;;;;;;;;;;25.00;77.60;;;;;;5120390;28;19976;-59
2022/11/14 11:36:04;;;;;;;;;;;25.90;88.20;;;;;;5120212;28;19912;-59
2022/11/14 11:38:30;;;;;;;;;;;26.50;66.70;;;;;;5120319;28;19908;-59
2022/11/14 11:41:04;;;;;;;;;;;26.30;60.80;;;;;;5120574;28;19915;-59
2022/11/14 11:43:39;;;;;;;;;;;26.20;69.10;;;;;;5119797;28;19908;-59
2022/11/14 11:46:10;;;;;;;;;;;26.40;52.30;;;;;;5120199;28;19929;-59
2022/11/14 11:48:37;;;;;;;;;;;25.90;51.50;;;;;;5119838;28;19966;-59
2022/11/14 11:51:03;;;;;;;;;;;25.10;49.40;;;;;;5120064;28;20317;-59
2022/11/14 11:53:42;;;;;;;;;;;25.10;66.00;;;;;;5119638;28;19908;-59
2022/11/14 11:56:20;;;;;;;;;;;24.80;60.90;;;;;;5119951;28;20006;-60
2022/11/14 11:58:47;;;;;;;;;;;24.40;57.60;;;;;;5119875;28;19915;-59
2022/11/14 12:01:13;;;;;;;;;;;25.10;61.70;;;;;;5119706;28;19998;-59
2022/11/14 12:03:41;;;;;;;;;;;25.30;67.50;;;;;;5119827;28;19908;-59
2022/11/14 12:06:14;;;;;;;;;;;25.10;55.50;;;;;;5119992;28;19914;-59
2022/11/14 12:08:58;;;;;;;;;;;24.50;48.60;;;;;;5119761;28;19920;-59
2022/11/14 12:11:26;;;;;;;;;;;23.80;54.20;;;;;;5119675;28;19908;-59
2022/11/14 12:13:51;;;;;;;;;;;23.40;58.60;;;;;;5119774;28;20321;-59
2022/11/14 12:16:24;;;;;;;;;;;23.80;66.30;;;;;;5101150;28;19909;-59
2022/11/14 12:19:04;;;;;;;;;;;24.00;51.00;;;;;;5119631;28;19999;-59
2022/11/14 12:21:36;;;;;;;;;;;24.10;60.20;;;;;;5119338;28;19950;-59
2022/11/14 12:24:20;;;;;;;;;;;24.20;60.30;;;;;;5119435;28;19994;-59
2022/11/14 12:26:50;;;;;;;;;;;24.70;62.70;;;;;;5118892;28;19908;-59
2022/11/14 12:29:21;;;;;;;;;;;24.50;51.50;;;;;;5119114;28;19911;-59
2022/11/14 12:31:47;;;;;;;;;;;24.50;52.00;;;;;;5119279;28;19973;-59
2022/11/14 12:34:33;;;;;;;;;;;24.40;58.50;;;;;;5119195;28;19988;-59
2022/11/14 12:36:59;;;;;;;;;;;24.40;54.70;;;;;;5119257;28;19908;-59
2022/11/14 12:39:29;;;;;;;;;;;24.40;52.30;;;;;;5118965;28;20003;-59
2022/11/14 12:42:02;;;;;;;;;;;24.70;47.00;;;;;;5119150;28;20007;-59
2022/11/14 12:44:27;;;;;;;;;;;24.50;49.10;;;;;;5119116;28;19955;-59
2022/11/14 12:47:02;;;;;;;;;;;24.70;49.60;;;;;;5118918;28;20375;-59
2022/11/14 12:49:46;;;;;;;;;;;24.80;52.20;;;;;;5118895;28;19912;-59
2022/11/14 12:52:30;;;;;;;;;;;24.70;53.40;;;;;;5118816;28;19999;-59
2022/11/14 12:54:56;;;;;;;;;;;24.80;51.70;;;;;;5118703;28;19915;-59
2022/11/14 13:00:11;;;;;;;;;;;25.20;50.90;;;;;;5118933;28;19914;-59
2022/11/14 13:02:49;;;;;;;;;;;24.50;46.40;;;;;;5118539;28;19908;-59
2022/11/14 13:05:21;;;;;;;;;;;25.00;53.70;;;;;;5118544;28;20295;-59
2022/11/14 13:08:05;;;;;;;;;;;25.10;46.50;;;;;;5118466;28;19919;-59
2022/11/14 13:10:35;;;;;;;;;;;25.00;49.80;;;;;;5118651;28;20424;-59
2022/11/14 13:22:02;;;;;;;;;;;24.10;47.20;;;;;;5118462;28;19961;-59
2022/11/14 13:24:48;;;;;;;;;;;23.80;46.90;;;;;;5118549;28;19922;-59
2022/11/14 13:27:30;;;;;;;;;;;23.60;44.40;;;;;;5118168;28;19922;-59
2022/11/14 13:29:57;;;;;;;;;;;23.80;45.70;;;;;;5118179;28;19911;-59
2022/11/14 13:32:41;;;;;;;;;;;23.90;43.70;;;;;;5118295;28;19907;-59
2022/11/14 13:35:14;;;;;;;;;;;23.90;41.40;;;;;;5118695;28;20317;-59
2022/11/14 13:37:46;;;;;;;;;;;23.30;42.10;;;;;;5121531;28;19961;-59
2022/11/14 13:40:14;;;;;;;;;;;23.30;40.90;;;;;;5122448;28;19912;-59
2022/11/14 13:43:00;;;;;;;;;;;23.40;45.00;;;;;;5122558;28;19908;-59
2022/11/14 13:45:40;;;;;;;;;;;23.40;44.70;;;;;;5070788;28;20003;-58
2022/11/14 13:48:15;;;;;;;;;;;23.30;44.20;;;;;;5122408;28;19930;-58
2022/11/14 13:50:44;;;;;;;;;;;23.10;42.10;;;;;;5122323;28;19915;-58
2022/11/14 13:53:14;;;;;;;;;;;23.00;45.00;;;;;;5122255;28;19908;-58
2022/11/14 13:55:58;;;;;;;;;;;22.80;44.90;;;;;;5122164;28;19907;-58
2022/11/14 13:58:27;;;;;;;;;;;22.60;48.80;;;;;;5122385;28;20375;-58
2022/11/14 14:01:10;;;;;;;;;;;22.20;46.50;;;;;;5121974;28;20367;-58
2022/11/14 14:03:55;;;;;;;;;;;22.00;47.10;;;;;;5121843;28;20363;-58
2022/11/14 14:06:30;;;;;;;;;;;22.00;45.50;;;;;;5121840;28;19908;-59
2022/11/14 14:09:14;;;;;;;;;;;21.80;45.80;;;;;;5121797;28;19919;-58
2022/11/14 14:11:58;;;;;;;;;;;22.00;46.80;;;;;;5121975;28;20274;-58
2022/11/14 14:14:25;;;;;;;;;;;21.70;44.30;;;;;;5121670;28;19914;-59
2022/11/14 14:16:54;;;;;;;;;;;21.40;48.40;;;;;;5121965;28;19929;-58
2022/11/14 14:19:32;;;;;;;;;;;22.00;49.20;;;;;;5122198;28;19915;-58
2022/11/14 14:22:00;;;;;;;;;;;22.30;46.10;;;;;;5121713;28;19994;-58
2022/11/14 14:24:38;;;;;;;;;;;22.60;46.40;;;;;;5121913;28;19907;-58
2022/11/14 14:27:23;;;;;;;;;;;22.10;47.00;;;;;;5121678;28;19915;-58
2022/11/14 14:29:54;;;;;;;;;;;21.70;47.80;;;;;;5121452;28;20382;-58
2022/11/14 14:32:20;;;;;;;;;;;21.10;47.70;;;;;;5121664;28;19915;-58
2022/11/14 14:34:45;;;;;;;;;;;21.20;47.60;;;;;;5121140;28;19908;-58
2022/11/14 14:37:21;;;;;;;;;;;20.90;50.30;;;;;;5121376;28;19955;-58
2022/11/14 14:39:56;;;;;;;;;;;20.70;47.40;;;;;;5121568;28;20014;-58